<<    Januar 2011    >>
Datum    Temp.       Tempmin      Tempmax    Taup.       Taup.min      Taup.max    Feuchte    Feuchtemin    Feuchtemax    Druck    Druckmin    Druckmax    Regen    Wind    Benmax  
  01.01.2011  1,8    -1,0    23:09    3,2    12:21  1,5    -1,3    23:09    2,9    12:21  98,0    98    00:00    98    00:00  1022,5    1021    05:33    1025    01:03  3,9  1,8  10,1  
  02.01.2011  0,6    -1,5    07:36    2,9    13:53  0,2    -1,8    07:36    2,5    13:46  97,0    92    14:15    98    00:00  1025,3    1023    02:18    1027    13:03  0,0  1,4  10,8  
  03.01.2011  0,7    -0,4    02:58    2,5    12:41  0,3    -0,8    02:58    1,9    11:38  97,2    91    13:13    98    00:00  1025,4    1023    20:03    1027    00:00  1,9  0,8  7,9  
  04.01.2011  -0,1    -2,5    23:59    2,0    13:13  -1,9    -4,9    21:37    0,4    10:50  88,4    72    16:13    98    00:00  1020,2    1018    23:59    1024    00:00  0,9  2,1  12,6  
  05.01.2011  -2,1    -3,6    03:41    0,7    23:59  -6,1    -8,1    15:06    -2,7    23:59  74,4    60    14:26    88    03:07  1013,0    1004    23:32    1018    00:00  0,0  6,2  23,0  
  06.01.2011  4,7    0,7    00:00    9,1    23:25  4,0    -2,5    00:00    8,8    23:25  95,6    79    00:00    98    05:12  999,7    997    16:02    1004    00:00  10,5  3,8  17,3  
  07.01.2011  6,6    3,7    04:50    8,9    14:44  6,2    3,4    04:50    8,6    14:44  97,5    90    00:09    98    23:59  1006,9    1001    00:00    1009    11:47  5,7  1,9  12,2  
  08.01.2011  10,3    6,3    00:44    13,9    14:21  6,9    3,8    15:12    10,0    09:56  81,1    52    15:12    98    00:00  1005,6    1003    10:31    1008    00:00  2,8  4,2  23,4  
  09.01.2011  4,8    -1,2    23:59    9,1    00:00  3,3    -1,8    23:59    8,3    01:49  90,0    75    15:00    98    02:44  1013,1    1005    00:00    1022    22:46  6,6  1,3  16,9  
  10.01.2011  -0,1    -2,6    07:02    2,4    14:43  -0,9    -2,9    07:02    1,8    13:59  94,7    83    23:59    98    00:26  1022,7    1018    23:59    1026    09:46  0,0  2,0  17,6  
  11.01.2011  3,5    0,6    03:20    6,5    21:14  1,7    -2,3    02:51    6,0    20:30  88,1    77    10:26    97    20:13  1010,6    1005    13:31    1018    00:00  1,9  4,4  21,2  
  12.01.2011  5,7    3,8    08:47    10,0    23:45  4,3    1,9    06:51    9,7    23:45  90,9    80    11:11    98    23:59  1016,1    1011    21:30    1020    04:46  8,6  3,2  17,6  
  13.01.2011  11,6    9,9    00:05    13,1    16:28  11,3    9,6    00:05    12,5    13:09  97,5    93    16:38    98    00:00  1011,7    1010    14:15    1014    19:45  11,4  3,8  23,8  
  14.01.2011  11,9    9,0    23:59    13,1    03:52  8,7    5,9    16:33    12,3    02:27  81,4    63    16:07    98    00:00  1013,5    1011    01:00    1015    09:30  3,7  3,7  21,6  
  15.01.2011  9,1    6,5    23:59    10,7    14:40  5,2    3,5    19:05    8,2    00:00  76,9    63    15:06    95    00:00  1021,8    1015    00:00    1024    11:30  0,0  2,8  19,4  
  16.01.2011  8,3    5,6    05:15    12,7    14:03  4,8    3,1    05:15    6,9    13:09  79,6    62    15:04    92    09:15  1024,8    1024    00:00    1026    08:16  0,0  2,8  15,5  
  17.01.2011  6,7    3,0    07:42    10,1    14:00  4,3    2,4    07:42    6,0    22:56  85,2    69    14:40    97    08:06  1023,8    1022    16:59    1025    00:00  0,0  1,9  15,5  
  18.01.2011  7,6    4,0    22:59    10,6    12:53  5,3    1,4    23:34    7,1    11:49  86,1    73    14:48    95    17:39  1024,3    1021    13:44    1030    23:29  0,9  2,2  20,9  
  19.01.2011  4,1    2,4    21:53    6,5    13:51  1,9    0,5    16:32    3,1    02:00  85,6    71    13:06    97    23:59  1030,2    1029    01:29    1032    10:44  0,9  4,0  20,5  
  20.01.2011  2,3    -1,8    23:56    4,2    12:58  -0,8    -6,1    23:51    2,4    00:01  81,0    62    16:14    98    04:14  1031,8    1029    00:14    1036    22:14  0,9  3,3  12,6  
  21.01.2011  -0,3    -2,3    00:42    1,1    12:49  -3,8    -6,1    00:00    -0,6    23:59  77,5    67    11:55    92    23:59  1037,0    1035    00:14    1038    07:58  0,0  1,6  10,1  
  22.01.2011  1,3    -0,5    02:33    2,3    14:07  0,6    -1,5    02:33    2,0    14:07  95,7    92    00:00    98    07:37  1032,7    1031    12:58    1036    00:00  1,2  0,3  7,6  
  23.01.2011  3,2    1,6    00:00    5,1    18:32  2,9    1,0    00:00    4,8    18:32  97,7    96    00:00    98    23:59  1027,8    1025    14:28    1031    00:00  0,9  1,5  9,7  
  24.01.2011  4,0    3,0    06:52    5,3    14:26  3,2    1,3    05:43    4,4    12:44  94,4    84    14:46    98    00:00  1025,4    1022    23:58    1027    00:00  0,9  1,8  11,9  
  25.01.2011  3,6    1,4    23:29    4,7    14:22  2,0    -0,8    18:44    4,4    14:22  89,3    74    15:54    98    00:00  1014,4    1010    14:57    1022    00:00  4,6  4,5  22,0  
  26.01.2011  1,6    -1,2    23:57    4,0    11:58  0,1    -3,5    23:51    3,5    11:46  89,8    77    15:46    98    07:05  1011,3    1009    04:27    1016    22:57  0,0  0,7  10,1  
  27.01.2011  0,7    -2,3    02:59    3,7    13:30  -3,7    -7,9    23:59    0,3    08:47  74,2    53    21:05    96    06:53  1020,6    1015    00:57    1025    23:59  0,0  2,4  16,6  
  28.01.2011  -1,2    -4,4    05:48    2,7    13:45  -7,1    -8,1    03:56    -5,9    10:33  64,7    49    14:09    77    05:55  1024,8    1023    13:42    1027    11:42  0,0  1,1  17,6  
  29.01.2011  -2,2    -6,3    08:01    3,1    14:33  -6,7    -8,4    08:01    -4,0    10:30  72,3    48    14:29    88    09:32  1021,6    1019    19:42    1023    00:00  0,0  0,8  10,1  
  30.01.2011  -4,0    -7,6    08:07    0,7    14:51  -7,2    -9,5    08:07    -4,4    12:00  78,7    62    17:07    89    09:34  1022,1    1019    16:26    1024    09:12  0,0  0,5  9,4  
  31.01.2011  -3,5    -6,9    02:15    -1,7    13:20  -5,8    -9,0    02:15    -4,0    12:09  84,1    79    14:02    91    05:53  1026,1    1024    00:00    1029    21:41  0,0  0,5  8,6  
 
  Gesamt  3,3  -7,6            13,9            1,1  -9,5            12,5            86,6  48            98            1020,2  997            1038            68,1  2,4  23,8  
 
  Mittelwert  3,3  0,5            5,9            1,1  -1,6            3,8            86,6  73,7            95,4            1020,2  1016,8            1023,5            2,2  2,4  15,3  
  Minimum  -4,0  -7,6            -1,7            -7,2  -9,5            -5,9            64,7  48,0            77,0            999,7  997,0            1004,0            0,0  0,3  7,6  
  Maximum  11,9  9,9            13,9            11,3  9,6            12,5            98,0  98,0            98,0            1037,0  1035,0            1038,0            11,4  6,2  23,8  

  Heie Tage    Tmax >=30C     0  
  Sommertage    Tmax >=25C     0  
  Warme Tage    Tmax >=20C     0  
  Kalte Tage    Tmax  <10C     23  
  Frosttage    Tmin  <0C     16  
  Eistage    Tmax  <0C     1  
  Regentage > 0 mm    18  
  Regentage > 2 mm    9  
  Regentage > 10 mm    2  
  Regentage > 20 mm    0